sensor_id;sensor_type;location;lat;lon;timestamp;P1;durP1;ratioP1;P2;durP2;ratioP2
20699;SDS011;10511;51.232;9.420;2023-10-08T00:02:22;0.60;;;0.60;;
20699;SDS011;10511;51.232;9.420;2023-10-08T00:04:51;0.60;;;0.60;;
20699;SDS011;10511;51.232;9.420;2023-10-08T00:07:19;0.70;;;0.70;;
20699;SDS011;10511;51.232;9.420;2023-10-08T00:09:48;0.60;;;0.60;;
20699;SDS011;10511;51.232;9.420;2023-10-08T00:12:16;0.67;;;0.67;;
20699;SDS011;10511;51.232;9.420;2023-10-08T00:14:44;0.70;;;0.70;;
20699;SDS011;10511;51.232;9.420;2023-10-08T00:17:15;0.70;;;0.70;;
20699;SDS011;10511;51.232;9.420;2023-10-08T00:19:43;0.70;;;0.70;;
20699;SDS011;10511;51.232;9.420;2023-10-08T00:22:10;0.80;;;0.80;;
20699;SDS011;10511;51.232;9.420;2023-10-08T00:24:38;0.70;;;0.70;;
20699;SDS011;10511;51.232;9.420;2023-10-08T00:27:07;0.70;;;0.70;;
20699;SDS011;10511;51.232;9.420;2023-10-08T00:29:34;0.70;;;0.70;;
20699;SDS011;10511;51.232;9.420;2023-10-08T00:32:05;0.60;;;0.60;;
20699;SDS011;10511;51.232;9.420;2023-10-08T00:34:39;0.60;;;0.60;;
20699;SDS011;10511;51.232;9.420;2023-10-08T00:37:08;0.60;;;0.60;;
20699;SDS011;10511;51.232;9.420;2023-10-08T00:39:39;0.70;;;0.70;;
20699;SDS011;10511;51.232;9.420;2023-10-08T00:42:06;0.70;;;0.70;;
20699;SDS011;10511;51.232;9.420;2023-10-08T00:44:33;0.70;;;0.70;;
20699;SDS011;10511;51.232;9.420;2023-10-08T00:47:06;0.70;;;0.70;;
20699;SDS011;10511;51.232;9.420;2023-10-08T00:49:36;0.70;;;0.70;;
20699;SDS011;10511;51.232;9.420;2023-10-08T00:52:21;0.60;;;0.60;;
20699;SDS011;10511;51.232;9.420;2023-10-08T00:54:54;0.60;;;0.60;;
20699;SDS011;10511;51.232;9.420;2023-10-08T00:57:35;0.60;;;0.60;;
20699;SDS011;10511;51.232;9.420;2023-10-08T01:00:07;0.70;;;0.70;;
20699;SDS011;10511;51.232;9.420;2023-10-08T01:02:42;0.70;;;0.70;;
20699;SDS011;10511;51.232;9.420;2023-10-08T01:05:11;0.70;;;0.70;;
20699;SDS011;10511;51.232;9.420;2023-10-08T01:07:43;0.70;;;0.70;;
20699;SDS011;10511;51.232;9.420;2023-10-08T01:10:14;0.70;;;0.70;;
20699;SDS011;10511;51.232;9.420;2023-10-08T01:12:45;0.60;;;0.60;;
20699;SDS011;10511;51.232;9.420;2023-10-08T01:15:21;0.60;;;0.60;;
20699;SDS011;10511;51.232;9.420;2023-10-08T01:17:53;0.77;;;0.77;;
20699;SDS011;10511;51.232;9.420;2023-10-08T01:20:25;0.70;;;0.70;;
20699;SDS011;10511;51.232;9.420;2023-10-08T01:23:04;0.60;;;0.60;;
20699;SDS011;10511;51.232;9.420;2023-10-08T01:25:35;0.60;;;0.60;;
20699;SDS011;10511;51.232;9.420;2023-10-08T01:28:03;0.60;;;0.60;;
20699;SDS011;10511;51.232;9.420;2023-10-08T01:30:40;0.70;;;0.70;;
20699;SDS011;10511;51.232;9.420;2023-10-08T01:33:11;0.70;;;0.70;;
20699;SDS011;10511;51.232;9.420;2023-10-08T01:35:39;0.70;;;0.70;;
20699;SDS011;10511;51.232;9.420;2023-10-08T01:38:07;0.70;;;0.70;;
20699;SDS011;10511;51.232;9.420;2023-10-08T01:40:38;0.70;;;0.70;;
20699;SDS011;10511;51.232;9.420;2023-10-08T01:43:06;0.60;;;0.60;;
20699;SDS011;10511;51.232;9.420;2023-10-08T01:45:35;0.60;;;0.60;;
20699;SDS011;10511;51.232;9.420;2023-10-08T01:48:15;0.60;;;0.60;;
20699;SDS011;10511;51.232;9.420;2023-10-08T01:50:45;0.60;;;0.60;;
20699;SDS011;10511;51.232;9.420;2023-10-08T01:53:14;0.70;;;0.70;;
20699;SDS011;10511;51.232;9.420;2023-10-08T01:55:41;0.70;;;0.70;;
20699;SDS011;10511;51.232;9.420;2023-10-08T01:58:14;0.70;;;0.70;;
20699;SDS011;10511;51.232;9.420;2023-10-08T02:00:42;0.67;;;0.67;;
20699;SDS011;10511;51.232;9.420;2023-10-08T02:03:11;0.70;;;0.70;;
20699;SDS011;10511;51.232;9.420;2023-10-08T02:05:40;0.70;;;0.70;;
20699;SDS011;10511;51.232;9.420;2023-10-08T02:08:08;0.70;;;0.70;;
20699;SDS011;10511;51.232;9.420;2023-10-08T02:10:37;0.70;;;0.70;;
20699;SDS011;10511;51.232;9.420;2023-10-08T02:13:06;0.70;;;0.70;;
20699;SDS011;10511;51.232;9.420;2023-10-08T02:15:33;0.70;;;0.70;;
20699;SDS011;10511;51.232;9.420;2023-10-08T02:18:04;0.60;;;0.60;;
20699;SDS011;10511;51.232;9.420;2023-10-08T02:20:31;0.70;;;0.70;;
20699;SDS011;10511;51.232;9.420;2023-10-08T02:22:59;0.60;;;0.60;;
20699;SDS011;10511;51.232;9.420;2023-10-08T02:25:26;0.63;;;0.63;;
20699;SDS011;10511;51.232;9.420;2023-10-08T02:27:55;0.70;;;0.70;;
20699;SDS011;10511;51.232;9.420;2023-10-08T02:30:22;0.67;;;0.67;;
20699;SDS011;10511;51.232;9.420;2023-10-08T02:32:49;0.70;;;0.70;;
20699;SDS011;10511;51.232;9.420;2023-10-08T02:35:17;0.67;;;0.67;;
20699;SDS011;10511;51.232;9.420;2023-10-08T02:37:44;0.60;;;0.60;;
20699;SDS011;10511;51.232;9.420;2023-10-08T02:40:11;0.70;;;0.70;;
20699;SDS011;10511;51.232;9.420;2023-10-08T02:42:51;0.60;;;0.60;;
20699;SDS011;10511;51.232;9.420;2023-10-08T02:45:24;0.70;;;0.70;;
20699;SDS011;10511;51.232;9.420;2023-10-08T02:47:51;0.60;;;0.60;;
20699;SDS011;10511;51.232;9.420;2023-10-08T02:50:19;0.60;;;0.60;;
20699;SDS011;10511;51.232;9.420;2023-10-08T02:52:47;0.70;;;0.70;;
20699;SDS011;10511;51.232;9.420;2023-10-08T02:55:15;0.70;;;0.70;;
20699;SDS011;10511;51.232;9.420;2023-10-08T02:57:53;0.60;;;0.60;;
20699;SDS011;10511;51.232;9.420;2023-10-08T03:00:23;0.60;;;0.60;;
20699;SDS011;10511;51.232;9.420;2023-10-08T03:02:54;0.73;;;0.73;;
20699;SDS011;10511;51.232;9.420;2023-10-08T03:05:22;0.70;;;0.70;;
20699;SDS011;10511;51.232;9.420;2023-10-08T03:07:54;0.60;;;0.60;;
20699;SDS011;10511;51.232;9.420;2023-10-08T03:10:23;0.60;;;0.60;;
20699;SDS011;10511;51.232;9.420;2023-10-08T03:12:57;0.60;;;0.60;;
20699;SDS011;10511;51.232;9.420;2023-10-08T03:15:30;0.60;;;0.60;;
20699;SDS011;10511;51.232;9.420;2023-10-08T03:18:04;0.60;;;0.60;;
20699;SDS011;10511;51.232;9.420;2023-10-08T03:20:35;0.60;;;0.60;;
20699;SDS011;10511;51.232;9.420;2023-10-08T03:23:07;0.70;;;0.70;;
20699;SDS011;10511;51.232;9.420;2023-10-08T03:25:49;0.70;;;0.70;;
20699;SDS011;10511;51.232;9.420;2023-10-08T03:28:21;0.60;;;0.60;;
20699;SDS011;10511;51.232;9.420;2023-10-08T03:30:51;0.60;;;0.60;;
20699;SDS011;10511;51.232;9.420;2023-10-08T03:33:28;0.70;;;0.70;;
20699;SDS011;10511;51.232;9.420;2023-10-08T03:35:59;0.60;;;0.60;;
20699;SDS011;10511;51.232;9.420;2023-10-08T03:38:34;0.60;;;0.60;;
20699;SDS011;10511;51.232;9.420;2023-10-08T03:41:15;0.70;;;0.70;;
20699;SDS011;10511;51.232;9.420;2023-10-08T03:43:43;0.60;;;0.60;;
20699;SDS011;10511;51.232;9.420;2023-10-08T03:46:19;0.60;;;0.60;;
20699;SDS011;10511;51.232;9.420;2023-10-08T03:48:49;0.67;;;0.67;;
20699;SDS011;10511;51.232;9.420;2023-10-08T03:51:17;0.60;;;0.60;;
20699;SDS011;10511;51.232;9.420;2023-10-08T03:53:46;0.60;;;0.60;;
20699;SDS011;10511;51.232;9.420;2023-10-08T03:56:27;0.60;;;0.60;;
20699;SDS011;10511;51.232;9.420;2023-10-08T03:58:56;0.60;;;0.60;;
20699;SDS011;10511;51.232;9.420;2023-10-08T04:01:27;0.70;;;0.70;;
20699;SDS011;10511;51.232;9.420;2023-10-08T04:03:57;0.60;;;0.60;;
20699;SDS011;10511;51.232;9.420;2023-10-08T04:06:26;0.60;;;0.60;;
20699;SDS011;10511;51.232;9.420;2023-10-08T04:09:03;0.60;;;0.60;;
20699;SDS011;10511;51.232;9.420;2023-10-08T04:11:49;0.70;;;0.70;;
20699;SDS011;10511;51.232;9.420;2023-10-08T04:14:21;0.60;;;0.60;;
20699;SDS011;10511;51.232;9.420;2023-10-08T04:16:51;0.70;;;0.70;;
20699;SDS011;10511;51.232;9.420;2023-10-08T04:19:18;0.70;;;0.70;;
20699;SDS011;10511;51.232;9.420;2023-10-08T04:21:46;0.63;;;0.63;;
20699;SDS011;10511;51.232;9.420;2023-10-08T04:24:20;0.70;;;0.70;;
20699;SDS011;10511;51.232;9.420;2023-10-08T04:26:53;0.70;;;0.70;;
20699;SDS011;10511;51.232;9.420;2023-10-08T04:29:22;0.60;;;0.60;;
20699;SDS011;10511;51.232;9.420;2023-10-08T04:31:52;0.60;;;0.60;;
20699;SDS011;10511;51.232;9.420;2023-10-08T04:34:32;0.80;;;0.80;;
20699;SDS011;10511;51.232;9.420;2023-10-08T04:37:00;0.70;;;0.70;;
20699;SDS011;10511;51.232;9.420;2023-10-08T04:39:28;0.60;;;0.60;;
20699;SDS011;10511;51.232;9.420;2023-10-08T04:41:58;0.70;;;0.70;;
20699;SDS011;10511;51.232;9.420;2023-10-08T04:44:31;0.60;;;0.60;;
20699;SDS011;10511;51.232;9.420;2023-10-08T04:47:00;0.70;;;0.70;;
20699;SDS011;10511;51.232;9.420;2023-10-08T04:49:31;0.70;;;0.70;;
20699;SDS011;10511;51.232;9.420;2023-10-08T04:51:59;0.70;;;0.70;;
20699;SDS011;10511;51.232;9.420;2023-10-08T04:54:30;0.70;;;0.70;;
20699;SDS011;10511;51.232;9.420;2023-10-08T04:56:58;0.70;;;0.70;;
20699;SDS011;10511;51.232;9.420;2023-10-08T04:59:26;0.70;;;0.70;;
20699;SDS011;10511;51.232;9.420;2023-10-08T05:02:00;0.70;;;0.70;;
20699;SDS011;10511;51.232;9.420;2023-10-08T05:04:58;0.70;;;0.70;;
20699;SDS011;10511;51.232;9.420;2023-10-08T05:07:48;0.77;;;0.77;;
20699;SDS011;10511;51.232;9.420;2023-10-08T05:10:42;0.70;;;0.70;;
20699;SDS011;10511;51.232;9.420;2023-10-08T05:13:40;0.70;;;0.70;;
20699;SDS011;10511;51.232;9.420;2023-10-08T05:16:21;0.80;;;0.80;;
20699;SDS011;10511;51.232;9.420;2023-10-08T05:19:03;0.60;;;0.60;;
20699;SDS011;10511;51.232;9.420;2023-10-08T05:21:49;0.70;;;0.70;;
20699;SDS011;10511;51.232;9.420;2023-10-08T05:24:17;0.73;;;0.73;;
20699;SDS011;10511;51.232;9.420;2023-10-08T05:26:52;0.70;;;0.70;;
20699;SDS011;10511;51.232;9.420;2023-10-08T05:29:39;0.80;;;0.80;;
20699;SDS011;10511;51.232;9.420;2023-10-08T05:32:36;0.80;;;0.80;;
20699;SDS011;10511;51.232;9.420;2023-10-08T05:35:10;0.80;;;0.80;;
20699;SDS011;10511;51.232;9.420;2023-10-08T05:37:55;0.80;;;0.80;;
20699;SDS011;10511;51.232;9.420;2023-10-08T05:40:38;0.80;;;0.80;;
20699;SDS011;10511;51.232;9.420;2023-10-08T05:43:19;0.80;;;0.80;;
20699;SDS011;10511;51.232;9.420;2023-10-08T05:46:10;0.80;;;0.80;;
20699;SDS011;10511;51.232;9.420;2023-10-08T05:49:04;0.80;;;0.80;;
20699;SDS011;10511;51.232;9.420;2023-10-08T05:51:52;0.80;;;0.80;;
20699;SDS011;10511;51.232;9.420;2023-10-08T05:54:37;0.80;;;0.80;;
20699;SDS011;10511;51.232;9.420;2023-10-08T05:57:22;0.83;;;0.83;;
20699;SDS011;10511;51.232;9.420;2023-10-08T06:00:03;0.80;;;0.80;;
20699;SDS011;10511;51.232;9.420;2023-10-08T06:03:07;0.80;;;0.80;;
20699;SDS011;10511;51.232;9.420;2023-10-08T06:05:36;0.80;;;0.80;;
20699;SDS011;10511;51.232;9.420;2023-10-08T06:08:13;0.80;;;0.80;;
20699;SDS011;10511;51.232;9.420;2023-10-08T06:10:46;0.80;;;0.80;;
20699;SDS011;10511;51.232;9.420;2023-10-08T06:13:21;0.77;;;0.77;;
20699;SDS011;10511;51.232;9.420;2023-10-08T06:15:56;0.70;;;0.70;;
20699;SDS011;10511;51.232;9.420;2023-10-08T06:18:33;0.80;;;0.80;;
20699;SDS011;10511;51.232;9.420;2023-10-08T06:21:00;0.80;;;0.80;;
20699;SDS011;10511;51.232;9.420;2023-10-08T06:23:34;0.73;;;0.73;;
20699;SDS011;10511;51.232;9.420;2023-10-08T06:26:03;0.70;;;0.70;;
20699;SDS011;10511;51.232;9.420;2023-10-08T06:28:39;0.70;;;0.70;;
20699;SDS011;10511;51.232;9.420;2023-10-08T06:31:09;0.80;;;0.80;;
20699;SDS011;10511;51.232;9.420;2023-10-08T06:33:41;0.80;;;0.80;;
20699;SDS011;10511;51.232;9.420;2023-10-08T06:36:09;0.70;;;0.70;;
20699;SDS011;10511;51.232;9.420;2023-10-08T06:38:42;0.70;;;0.70;;
20699;SDS011;10511;51.232;9.420;2023-10-08T06:41:13;0.70;;;0.70;;
20699;SDS011;10511;51.232;9.420;2023-10-08T06:43:43;0.70;;;0.70;;
20699;SDS011;10511;51.232;9.420;2023-10-08T06:46:13;0.80;;;0.80;;
20699;SDS011;10511;51.232;9.420;2023-10-08T06:48:41;0.70;;;0.70;;
20699;SDS011;10511;51.232;9.420;2023-10-08T06:51:08;0.70;;;0.70;;
20699;SDS011;10511;51.232;9.420;2023-10-08T06:53:39;0.77;;;0.77;;
20699;SDS011;10511;51.232;9.420;2023-10-08T06:56:07;0.80;;;0.80;;
20699;SDS011;10511;51.232;9.420;2023-10-08T06:58:37;0.80;;;0.80;;
20699;SDS011;10511;51.232;9.420;2023-10-08T07:01:11;0.80;;;0.80;;
20699;SDS011;10511;51.232;9.420;2023-10-08T07:03:43;0.80;;;0.80;;
20699;SDS011;10511;51.232;9.420;2023-10-08T07:06:14;0.80;;;0.80;;
20699;SDS011;10511;51.232;9.420;2023-10-08T07:08:50;0.80;;;0.80;;
20699;SDS011;10511;51.232;9.420;2023-10-08T07:11:21;0.80;;;0.80;;
20699;SDS011;10511;51.232;9.420;2023-10-08T07:13:49;0.80;;;0.80;;
20699;SDS011;10511;51.232;9.420;2023-10-08T07:16:17;0.90;;;0.90;;
20699;SDS011;10511;51.232;9.420;2023-10-08T07:18:46;0.90;;;0.90;;
20699;SDS011;10511;51.232;9.420;2023-10-08T07:21:17;0.90;;;0.90;;
20699;SDS011;10511;51.232;9.420;2023-10-08T07:23:49;0.90;;;0.90;;
20699;SDS011;10511;51.232;9.420;2023-10-08T07:26:23;0.83;;;0.83;;
20699;SDS011;10511;51.232;9.420;2023-10-08T07:28:51;0.80;;;0.80;;
20699;SDS011;10511;51.232;9.420;2023-10-08T07:31:18;0.87;;;0.87;;
20699;SDS011;10511;51.232;9.420;2023-10-08T07:33:48;0.80;;;0.80;;
20699;SDS011;10511;51.232;9.420;2023-10-08T07:36:21;0.83;;;0.83;;
20699;SDS011;10511;51.232;9.420;2023-10-08T07:38:48;0.90;;;0.90;;
20699;SDS011;10511;51.232;9.420;2023-10-08T07:41:17;0.90;;;0.90;;
20699;SDS011;10511;51.232;9.420;2023-10-08T07:43:47;0.90;;;0.90;;
20699;SDS011;10511;51.232;9.420;2023-10-08T07:46:20;0.90;;;0.90;;
20699;SDS011;10511;51.232;9.420;2023-10-08T07:48:47;0.90;;;0.90;;
20699;SDS011;10511;51.232;9.420;2023-10-08T07:51:15;0.90;;;0.90;;
20699;SDS011;10511;51.232;9.420;2023-10-08T07:53:47;0.90;;;0.90;;
20699;SDS011;10511;51.232;9.420;2023-10-08T07:56:14;0.80;;;0.80;;
20699;SDS011;10511;51.232;9.420;2023-10-08T07:58:43;0.90;;;0.90;;
20699;SDS011;10511;51.232;9.420;2023-10-08T08:01:11;0.90;;;0.90;;
20699;SDS011;10511;51.232;9.420;2023-10-08T08:03:39;0.90;;;0.90;;
20699;SDS011;10511;51.232;9.420;2023-10-08T08:06:07;0.83;;;0.83;;
20699;SDS011;10511;51.232;9.420;2023-10-08T08:08:37;0.90;;;0.90;;
20699;SDS011;10511;51.232;9.420;2023-10-08T08:11:05;0.80;;;0.80;;
20699;SDS011;10511;51.232;9.420;2023-10-08T08:13:37;0.90;;;0.90;;
20699;SDS011;10511;51.232;9.420;2023-10-08T08:16:07;0.90;;;0.90;;
20699;SDS011;10511;51.232;9.420;2023-10-08T08:18:44;0.80;;;0.80;;
20699;SDS011;10511;51.232;9.420;2023-10-08T08:21:11;0.90;;;0.90;;
20699;SDS011;10511;51.232;9.420;2023-10-08T08:23:41;0.90;;;0.90;;
20699;SDS011;10511;51.232;9.420;2023-10-08T08:26:13;0.80;;;0.80;;
20699;SDS011;10511;51.232;9.420;2023-10-08T08:28:53;0.90;;;0.90;;
20699;SDS011;10511;51.232;9.420;2023-10-08T08:31:25;0.90;;;0.90;;
20699;SDS011;10511;51.232;9.420;2023-10-08T08:33:54;0.90;;;0.90;;
20699;SDS011;10511;51.232;9.420;2023-10-08T08:36:25;0.90;;;0.90;;
20699;SDS011;10511;51.232;9.420;2023-10-08T08:38:54;0.90;;;0.90;;
20699;SDS011;10511;51.232;9.420;2023-10-08T08:41:21;0.90;;;0.90;;
20699;SDS011;10511;51.232;9.420;2023-10-08T08:43:48;0.93;;;0.93;;
20699;SDS011;10511;51.232;9.420;2023-10-08T08:46:22;1.00;;;1.00;;
20699;SDS011;10511;51.232;9.420;2023-10-08T08:48:55;1.00;;;1.00;;
20699;SDS011;10511;51.232;9.420;2023-10-08T08:51:26;0.90;;;0.90;;
20699;SDS011;10511;51.232;9.420;2023-10-08T08:53:55;0.90;;;0.90;;
20699;SDS011;10511;51.232;9.420;2023-10-08T08:56:25;0.80;;;0.80;;
20699;SDS011;10511;51.232;9.420;2023-10-08T08:58:55;0.90;;;0.90;;
20699;SDS011;10511;51.232;9.420;2023-10-08T09:01:23;0.90;;;0.90;;
20699;SDS011;10511;51.232;9.420;2023-10-08T09:03:51;0.90;;;0.90;;
20699;SDS011;10511;51.232;9.420;2023-10-08T09:06:19;0.80;;;0.80;;
20699;SDS011;10511;51.232;9.420;2023-10-08T09:08:46;0.80;;;0.80;;
20699;SDS011;10511;51.232;9.420;2023-10-08T09:11:15;0.90;;;0.90;;
20699;SDS011;10511;51.232;9.420;2023-10-08T09:13:42;0.90;;;0.90;;
20699;SDS011;10511;51.232;9.420;2023-10-08T09:16:11;0.90;;;0.90;;
20699;SDS011;10511;51.232;9.420;2023-10-08T09:18:41;1.00;;;1.00;;
20699;SDS011;10511;51.232;9.420;2023-10-08T09:21:12;0.90;;;0.90;;
20699;SDS011;10511;51.232;9.420;2023-10-08T09:23:42;0.90;;;0.90;;
20699;SDS011;10511;51.232;9.420;2023-10-08T09:26:12;0.90;;;0.90;;
20699;SDS011;10511;51.232;9.420;2023-10-08T09:28:40;0.90;;;0.90;;
20699;SDS011;10511;51.232;9.420;2023-10-08T09:31:13;0.90;;;0.90;;
20699;SDS011;10511;51.232;9.420;2023-10-08T09:33:42;0.90;;;0.90;;
20699;SDS011;10511;51.232;9.420;2023-10-08T09:36:10;0.90;;;0.90;;
20699;SDS011;10511;51.232;9.420;2023-10-08T09:38:45;0.80;;;0.80;;
20699;SDS011;10511;51.232;9.420;2023-10-08T09:41:14;0.90;;;0.90;;
20699;SDS011;10511;51.232;9.420;2023-10-08T09:43:41;0.80;;;0.80;;
20699;SDS011;10511;51.232;9.420;2023-10-08T09:46:09;0.90;;;0.90;;
20699;SDS011;10511;51.232;9.420;2023-10-08T09:48:42;0.90;;;0.90;;
20699;SDS011;10511;51.232;9.420;2023-10-08T09:51:15;0.80;;;0.80;;
20699;SDS011;10511;51.232;9.420;2023-10-08T09:53:51;0.80;;;0.80;;
20699;SDS011;10511;51.232;9.420;2023-10-08T09:56:27;0.80;;;0.80;;
20699;SDS011;10511;51.232;9.420;2023-10-08T09:58:56;0.90;;;0.90;;
20699;SDS011;10511;51.232;9.420;2023-10-08T10:01:24;0.80;;;0.80;;
20699;SDS011;10511;51.232;9.420;2023-10-08T10:03:52;0.87;;;0.87;;
20699;SDS011;10511;51.232;9.420;2023-10-08T10:06:19;0.90;;;0.90;;
20699;SDS011;10511;51.232;9.420;2023-10-08T10:08:48;0.90;;;0.90;;
20699;SDS011;10511;51.232;9.420;2023-10-08T10:11:15;0.90;;;0.90;;
20699;SDS011;10511;51.232;9.420;2023-10-08T10:13:43;0.80;;;0.80;;
20699;SDS011;10511;51.232;9.420;2023-10-08T10:16:13;0.80;;;0.80;;
20699;SDS011;10511;51.232;9.420;2023-10-08T10:18:48;0.80;;;0.80;;
20699;SDS011;10511;51.232;9.420;2023-10-08T10:21:25;0.90;;;0.90;;
20699;SDS011;10511;51.232;9.420;2023-10-08T10:23:56;0.80;;;0.80;;
20699;SDS011;10511;51.232;9.420;2023-10-08T10:26:27;0.90;;;0.90;;
20699;SDS011;10511;51.232;9.420;2023-10-08T10:31:48;0.87;;;0.87;;
20699;SDS011;10511;51.232;9.420;2023-10-08T10:34:19;0.80;;;0.80;;
20699;SDS011;10511;51.232;9.420;2023-10-08T10:36:51;0.80;;;0.80;;
20699;SDS011;10511;51.232;9.420;2023-10-08T10:39:35;0.80;;;0.80;;
20699;SDS011;10511;51.232;9.420;2023-10-08T10:42:07;0.80;;;0.80;;
20699;SDS011;10511;51.232;9.420;2023-10-08T10:44:45;0.90;;;0.90;;
20699;SDS011;10511;51.232;9.420;2023-10-08T10:47:15;0.87;;;0.87;;
20699;SDS011;10511;51.232;9.420;2023-10-08T10:50:07;0.80;;;0.80;;
20699;SDS011;10511;51.232;9.420;2023-10-08T10:52:51;0.90;;;0.90;;
20699;SDS011;10511;51.232;9.420;2023-10-08T10:55:20;0.90;;;0.90;;
20699;SDS011;10511;51.232;9.420;2023-10-08T10:57:48;0.90;;;0.90;;
20699;SDS011;10511;51.232;9.420;2023-10-08T11:00:20;0.93;;;0.93;;
20699;SDS011;10511;51.232;9.420;2023-10-08T11:03:02;0.80;;;0.80;;
20699;SDS011;10511;51.232;9.420;2023-10-08T11:05:41;0.80;;;0.80;;
20699;SDS011;10511;51.232;9.420;2023-10-08T11:08:13;0.80;;;0.80;;
20699;SDS011;10511;51.232;9.420;2023-10-08T11:10:46;0.80;;;0.80;;
20699;SDS011;10511;51.232;9.420;2023-10-08T11:13:16;0.90;;;0.90;;
20699;SDS011;10511;51.232;9.420;2023-10-08T11:15:46;0.90;;;0.90;;
20699;SDS011;10511;51.232;9.420;2023-10-08T11:18:18;0.80;;;0.80;;
20699;SDS011;10511;51.232;9.420;2023-10-08T11:20:46;0.80;;;0.80;;
20699;SDS011;10511;51.232;9.420;2023-10-08T11:23:32;0.70;;;0.70;;
20699;SDS011;10511;51.232;9.420;2023-10-08T11:26:02;1.00;;;1.00;;
20699;SDS011;10511;51.232;9.420;2023-10-08T11:28:31;0.80;;;0.80;;
20699;SDS011;10511;51.232;9.420;2023-10-08T11:31:01;0.80;;;0.80;;
20699;SDS011;10511;51.232;9.420;2023-10-08T11:33:36;0.90;;;0.90;;
20699;SDS011;10511;51.232;9.420;2023-10-08T11:36:04;0.80;;;0.80;;
20699;SDS011;10511;51.232;9.420;2023-10-08T11:38:46;0.83;;;0.83;;
20699;SDS011;10511;51.232;9.420;2023-10-08T11:41:58;0.80;;;0.80;;
20699;SDS011;10511;51.232;9.420;2023-10-08T11:44:29;0.80;;;0.80;;
20699;SDS011;10511;51.232;9.420;2023-10-08T11:46:56;0.80;;;0.80;;
20699;SDS011;10511;51.232;9.420;2023-10-08T11:49:36;0.80;;;0.80;;
20699;SDS011;10511;51.232;9.420;2023-10-08T11:52:09;0.90;;;0.90;;
20699;SDS011;10511;51.232;9.420;2023-10-08T11:54:36;0.80;;;0.80;;
20699;SDS011;10511;51.232;9.420;2023-10-08T11:57:08;0.90;;;0.90;;
20699;SDS011;10511;51.232;9.420;2023-10-08T11:59:36;0.90;;;0.90;;
20699;SDS011;10511;51.232;9.420;2023-10-08T12:02:04;0.80;;;0.80;;
20699;SDS011;10511;51.232;9.420;2023-10-08T12:04:32;0.80;;;0.80;;
20699;SDS011;10511;51.232;9.420;2023-10-08T12:06:59;0.80;;;0.80;;
20699;SDS011;10511;51.232;9.420;2023-10-08T12:09:32;0.80;;;0.80;;
20699;SDS011;10511;51.232;9.420;2023-10-08T12:12:03;0.80;;;0.80;;
20699;SDS011;10511;51.232;9.420;2023-10-08T12:14:35;0.80;;;0.80;;
20699;SDS011;10511;51.232;9.420;2023-10-08T12:17:03;0.70;;;0.70;;
20699;SDS011;10511;51.232;9.420;2023-10-08T12:19:36;0.70;;;0.70;;
20699;SDS011;10511;51.232;9.420;2023-10-08T12:22:05;0.70;;;0.70;;
20699;SDS011;10511;51.232;9.420;2023-10-08T12:24:33;0.70;;;0.70;;
20699;SDS011;10511;51.232;9.420;2023-10-08T12:27:00;0.80;;;0.80;;
20699;SDS011;10511;51.232;9.420;2023-10-08T12:29:28;0.80;;;0.80;;
20699;SDS011;10511;51.232;9.420;2023-10-08T12:31:59;0.70;;;0.70;;
20699;SDS011;10511;51.232;9.420;2023-10-08T12:34:28;0.70;;;0.70;;
20699;SDS011;10511;51.232;9.420;2023-10-08T12:36:57;0.77;;;0.77;;
20699;SDS011;10511;51.232;9.420;2023-10-08T12:39:25;0.70;;;0.70;;
20699;SDS011;10511;51.232;9.420;2023-10-08T12:41:53;0.70;;;0.70;;
20699;SDS011;10511;51.232;9.420;2023-10-08T12:44:19;0.70;;;0.70;;
20699;SDS011;10511;51.232;9.420;2023-10-08T12:46:46;0.70;;;0.70;;
20699;SDS011;10511;51.232;9.420;2023-10-08T12:49:15;0.73;;;0.73;;
20699;SDS011;10511;51.232;9.420;2023-10-08T12:51:42;0.70;;;0.70;;
20699;SDS011;10511;51.232;9.420;2023-10-08T12:54:10;0.70;;;0.70;;
20699;SDS011;10511;51.232;9.420;2023-10-08T12:56:46;0.70;;;0.70;;
20699;SDS011;10511;51.232;9.420;2023-10-08T12:59:13;0.70;;;0.70;;
20699;SDS011;10511;51.232;9.420;2023-10-08T13:01:46;0.80;;;0.80;;
20699;SDS011;10511;51.232;9.420;2023-10-08T13:04:17;0.70;;;0.70;;
20699;SDS011;10511;51.232;9.420;2023-10-08T13:06:51;0.80;;;0.80;;
20699;SDS011;10511;51.232;9.420;2023-10-08T13:09:22;0.70;;;0.70;;
20699;SDS011;10511;51.232;9.420;2023-10-08T13:11:49;0.70;;;0.70;;
20699;SDS011;10511;51.232;9.420;2023-10-08T13:14:16;0.70;;;0.70;;
20699;SDS011;10511;51.232;9.420;2023-10-08T13:16:43;0.80;;;0.80;;
20699;SDS011;10511;51.232;9.420;2023-10-08T13:19:10;0.70;;;0.70;;
20699;SDS011;10511;51.232;9.420;2023-10-08T13:21:40;0.83;;;0.83;;
20699;SDS011;10511;51.232;9.420;2023-10-08T13:24:09;0.70;;;0.70;;
20699;SDS011;10511;51.232;9.420;2023-10-08T13:26:36;0.70;;;0.70;;
20699;SDS011;10511;51.232;9.420;2023-10-08T13:29:04;0.70;;;0.70;;
20699;SDS011;10511;51.232;9.420;2023-10-08T13:31:34;0.70;;;0.70;;
20699;SDS011;10511;51.232;9.420;2023-10-08T13:34:01;0.80;;;0.80;;
20699;SDS011;10511;51.232;9.420;2023-10-08T13:36:33;0.80;;;0.80;;
20699;SDS011;10511;51.232;9.420;2023-10-08T13:39:04;0.80;;;0.80;;
20699;SDS011;10511;51.232;9.420;2023-10-08T13:41:34;0.70;;;0.70;;
20699;SDS011;10511;51.232;9.420;2023-10-08T13:44:03;0.80;;;0.80;;
20699;SDS011;10511;51.232;9.420;2023-10-08T13:46:31;0.70;;;0.70;;
20699;SDS011;10511;51.232;9.420;2023-10-08T13:49:01;0.80;;;0.80;;
20699;SDS011;10511;51.232;9.420;2023-10-08T13:51:31;0.80;;;0.80;;
20699;SDS011;10511;51.232;9.420;2023-10-08T13:54:01;0.80;;;0.80;;
20699;SDS011;10511;51.232;9.420;2023-10-08T13:56:41;0.70;;;0.70;;
20699;SDS011;10511;51.232;9.420;2023-10-08T13:59:13;0.70;;;0.70;;
20699;SDS011;10511;51.232;9.420;2023-10-08T14:01:41;0.77;;;0.77;;
20699;SDS011;10511;51.232;9.420;2023-10-08T14:04:11;0.80;;;0.80;;
20699;SDS011;10511;51.232;9.420;2023-10-08T14:06:42;0.77;;;0.77;;
20699;SDS011;10511;51.232;9.420;2023-10-08T14:09:14;0.70;;;0.70;;
20699;SDS011;10511;51.232;9.420;2023-10-08T14:11:46;0.70;;;0.70;;
20699;SDS011;10511;51.232;9.420;2023-10-08T14:14:15;0.70;;;0.70;;
20699;SDS011;10511;51.232;9.420;2023-10-08T14:16:44;0.70;;;0.70;;
20699;SDS011;10511;51.232;9.420;2023-10-08T14:19:17;0.70;;;0.70;;
20699;SDS011;10511;51.232;9.420;2023-10-08T14:21:48;0.80;;;0.80;;
20699;SDS011;10511;51.232;9.420;2023-10-08T14:24:21;0.80;;;0.80;;
20699;SDS011;10511;51.232;9.420;2023-10-08T14:26:49;0.80;;;0.80;;
20699;SDS011;10511;51.232;9.420;2023-10-08T14:29:19;0.70;;;0.70;;
20699;SDS011;10511;51.232;9.420;2023-10-08T14:31:49;0.70;;;0.70;;
20699;SDS011;10511;51.232;9.420;2023-10-08T14:34:18;0.70;;;0.70;;
20699;SDS011;10511;51.232;9.420;2023-10-08T14:37:07;0.70;;;0.70;;
20699;SDS011;10511;51.232;9.420;2023-10-08T14:39:53;0.80;;;0.80;;
20699;SDS011;10511;51.232;9.420;2023-10-08T14:42:37;0.70;;;0.70;;
20699;SDS011;10511;51.232;9.420;2023-10-08T14:45:21;0.70;;;0.70;;
20699;SDS011;10511;51.232;9.420;2023-10-08T14:47:51;0.80;;;0.80;;
20699;SDS011;10511;51.232;9.420;2023-10-08T14:50:20;0.70;;;0.70;;
20699;SDS011;10511;51.232;9.420;2023-10-08T14:52:47;0.70;;;0.70;;
20699;SDS011;10511;51.232;9.420;2023-10-08T14:55:16;0.70;;;0.70;;
20699;SDS011;10511;51.232;9.420;2023-10-08T14:57:46;0.70;;;0.70;;
20699;SDS011;10511;51.232;9.420;2023-10-08T15:00:13;0.70;;;0.70;;
20699;SDS011;10511;51.232;9.420;2023-10-08T15:02:41;0.70;;;0.70;;
20699;SDS011;10511;51.232;9.420;2023-10-08T15:05:08;0.70;;;0.70;;
20699;SDS011;10511;51.232;9.420;2023-10-08T15:07:36;0.70;;;0.70;;
20699;SDS011;10511;51.232;9.420;2023-10-08T15:10:04;0.73;;;0.73;;
20699;SDS011;10511;51.232;9.420;2023-10-08T15:12:35;0.70;;;0.70;;
20699;SDS011;10511;51.232;9.420;2023-10-08T15:15:02;0.70;;;0.70;;
20699;SDS011;10511;51.232;9.420;2023-10-08T15:17:38;0.70;;;0.70;;
20699;SDS011;10511;51.232;9.420;2023-10-08T15:20:06;0.80;;;0.80;;